createdAt,value
2019-03-06T00:00:44.971Z,47.30
2019-03-06T00:03:19.058Z,47.50
2019-03-06T00:05:51.519Z,47.50
2019-03-06T00:08:23.922Z,47.30
2019-03-06T00:10:56.303Z,47.40
2019-03-06T00:13:28.710Z,47.40
2019-03-06T00:16:01.115Z,47.50
2019-03-06T00:18:33.594Z,47.40
2019-03-06T00:21:05.967Z,47.40
2019-03-06T00:23:38.444Z,47.50
2019-03-06T00:26:10.839Z,47.60
2019-03-06T00:28:43.249Z,47.60
2019-03-06T00:31:16.691Z,47.70
2019-03-06T00:33:49.096Z,47.70
2019-03-06T00:36:23.273Z,47.70
2019-03-06T00:38:55.661Z,47.70
2019-03-06T00:41:32.622Z,47.60
2019-03-06T00:44:05.187Z,47.50
2019-03-06T00:46:37.596Z,47.60
2019-03-06T00:49:10.003Z,47.50
2019-03-06T00:51:42.385Z,47.50
2019-03-06T00:54:15.019Z,47.30
2019-03-06T00:56:47.415Z,47.20
2019-03-06T00:59:19.810Z,47.30
2019-03-06T01:01:52.221Z,47.10
2019-03-06T01:04:24.700Z,47.30
2019-03-06T01:06:57.084Z,47.30
2019-03-06T01:09:29.506Z,47.40
2019-03-06T01:12:01.875Z,47.50
2019-03-06T01:14:34.270Z,47.50
2019-03-06T01:17:06.661Z,47.50
2019-03-06T01:19:39.046Z,47.50
2019-03-06T01:22:11.516Z,47.60
2019-03-06T01:24:44.010Z,47.50
2019-03-06T01:27:16.401Z,47.50
2019-03-06T01:29:48.810Z,47.40
2019-03-06T01:32:21.191Z,47.20
2019-03-06T01:35:21.561Z,47.20
2019-03-06T01:38:12.861Z,47.10
2019-03-06T01:40:58.473Z,47.00
2019-03-06T01:43:35.863Z,47.00
2019-03-06T01:46:08.269Z,47.10
2019-03-06T01:48:40.654Z,47.10
2019-03-06T01:51:13.068Z,47.20
2019-03-06T01:53:45.370Z,47.10
2019-03-06T01:56:17.797Z,47.10
2019-03-06T01:58:50.193Z,46.90
2019-03-06T02:01:22.649Z,47.00
2019-03-06T02:03:55.120Z,47.00
2019-03-06T02:06:27.519Z,46.90
2019-03-06T02:09:00.976Z,47.00
2019-03-06T02:11:34.971Z,47.00
2019-03-06T02:14:07.295Z,46.80
2019-03-06T02:16:39.733Z,46.90
2019-03-06T02:19:12.100Z,47.00
2019-03-06T02:21:45.336Z,47.00
2019-03-06T02:24:17.653Z,47.00
2019-03-06T02:26:50.053Z,47.10
2019-03-06T02:29:22.409Z,47.00
2019-03-06T02:31:54.818Z,47.30
2019-03-06T02:34:27.187Z,47.30
2019-03-06T02:36:59.581Z,47.40
2019-03-06T02:39:31.996Z,47.40
2019-03-06T02:42:04.481Z,47.20
2019-03-06T02:44:39.777Z,47.10
2019-03-06T02:47:11.008Z,47.20
2019-03-06T02:49:43.412Z,47.20
2019-03-06T02:52:15.816Z,47.20
2019-03-06T02:54:48.205Z,47.20
2019-03-06T02:57:20.640Z,47.30
2019-03-06T03:00:10.580Z,47.30
2019-03-06T03:03:08.189Z,47.40
2019-03-06T03:05:45.845Z,47.40
2019-03-06T03:08:18.249Z,47.50
2019-03-06T03:10:50.814Z,47.50
2019-03-06T03:13:23.298Z,47.20
2019-03-06T03:15:55.691Z,47.00
2019-03-06T03:18:28.104Z,47.20
2019-03-06T03:21:00.687Z,47.10
2019-03-06T03:23:33.166Z,47.00
2019-03-06T03:26:05.574Z,46.90
2019-03-06T03:28:37.974Z,46.80
2019-03-06T03:31:10.472Z,46.90
2019-03-06T03:33:43.941Z,46.90
2019-03-06T03:36:16.317Z,46.80
2019-03-06T03:38:48.730Z,46.70
2019-03-06T03:41:21.106Z,46.60
2019-03-06T03:43:53.439Z,46.40
2019-03-06T03:46:25.907Z,46.50
2019-03-06T03:48:58.304Z,46.60
2019-03-06T03:51:30.688Z,46.40
2019-03-06T03:54:03.191Z,46.40
2019-03-06T03:56:35.600Z,46.60
2019-03-06T03:59:08.046Z,46.70
2019-03-06T04:01:40.349Z,46.60
2019-03-06T04:04:12.746Z,46.60
2019-03-06T04:06:45.147Z,46.60
2019-03-06T04:09:17.561Z,46.40
2019-03-06T04:11:49.917Z,46.40
2019-03-06T04:14:22.318Z,46.50
2019-03-06T04:16:54.689Z,46.50
2019-03-06T04:19:27.094Z,46.40
2019-03-06T04:21:59.564Z,46.40
2019-03-06T04:24:32.182Z,46.40
2019-03-06T04:27:04.626Z,46.30
2019-03-06T04:29:37.057Z,46.60
2019-03-06T04:32:09.445Z,46.40
2019-03-06T04:34:42.125Z,46.40
2019-03-06T04:37:14.526Z,46.40
2019-03-06T04:39:46.920Z,46.40
2019-03-06T04:42:19.307Z,46.40
2019-03-06T04:44:51.983Z,46.40
2019-03-06T04:47:24.358Z,46.40
2019-03-06T04:49:56.760Z,46.40
2019-03-06T04:52:29.139Z,46.40
2019-03-06T04:55:01.652Z,46.40
2019-03-06T04:57:34.143Z,46.40
2019-03-06T05:00:08.103Z,46.20
2019-03-06T05:02:40.420Z,46.20
2019-03-06T05:05:15.948Z,46.30
2019-03-06T05:07:48.420Z,46.20
2019-03-06T05:10:20.774Z,46.20
2019-03-06T05:12:53.234Z,46.10
2019-03-06T05:15:25.767Z,46.20
2019-03-06T05:18:07.544Z,46.00
2019-03-06T05:20:39.946Z,46.00
2019-03-06T05:23:12.329Z,46.00
2019-03-06T05:25:44.728Z,46.00
2019-03-06T05:28:17.098Z,46.10
2019-03-06T05:30:49.653Z,46.10
2019-03-06T05:33:22.104Z,46.10
2019-03-06T05:36:44.862Z,46.20
2019-03-06T05:39:17.233Z,46.00
2019-03-06T05:41:49.651Z,45.90
2019-03-06T05:44:22.060Z,45.90
2019-03-06T05:46:54.442Z,46.00
2019-03-06T05:49:26.858Z,45.90
2019-03-06T05:51:59.266Z,46.10
2019-03-06T05:54:31.583Z,46.10
2019-03-06T05:57:04.186Z,46.00
2019-03-06T05:59:36.594Z,45.90
2019-03-06T06:02:10.327Z,45.80
2019-03-06T06:04:42.945Z,45.80
2019-03-06T06:07:17.073Z,45.80
2019-03-06T06:09:49.489Z,45.80
2019-03-06T06:12:21.803Z,45.80
2019-03-06T06:14:54.263Z,46.10
2019-03-06T06:17:26.860Z,46.20
2019-03-06T06:19:59.259Z,46.30
2019-03-06T06:22:50.582Z,46.20
2019-03-06T06:25:22.999Z,46.30
2019-03-06T06:27:55.399Z,46.60
2019-03-06T06:30:27.885Z,46.70
2019-03-06T06:33:00.276Z,46.80
2019-03-06T06:35:32.677Z,46.90
2019-03-06T06:38:05.079Z,47.00
2019-03-06T06:40:41.223Z,47.10
2019-03-06T06:43:13.709Z,47.20
2019-03-06T06:45:46.094Z,47.20
2019-03-06T06:48:23.623Z,47.20
2019-03-06T06:51:39.107Z,47.10
2019-03-06T06:54:50.193Z,47.20
2019-03-06T06:58:18.744Z,47.00
2019-03-06T07:01:51.688Z,47.00
2019-03-06T07:05:41.654Z,47.00
2019-03-06T07:08:32.986Z,47.30
2019-03-06T07:11:22.869Z,47.40
2019-03-06T07:14:12.732Z,47.50
2019-03-06T07:17:04.279Z,47.60
2019-03-06T07:19:58.748Z,47.70
2019-03-06T07:22:52.840Z,47.70
2019-03-06T07:25:39.601Z,47.70
2019-03-06T07:28:19.678Z,47.40
2019-03-06T07:31:18.130Z,47.10
2019-03-06T07:34:12.498Z,46.90
2019-03-06T07:36:52.699Z,47.10
2019-03-06T07:39:32.076Z,47.10
2019-03-06T07:42:28.316Z,47.30
2019-03-06T07:45:43.112Z,47.20
2019-03-06T07:48:33.063Z,47.30
2019-03-06T07:51:23.345Z,47.40
2019-03-06T07:54:11.051Z,47.50
2019-03-06T07:56:54.466Z,47.80
2019-03-06T07:59:26.862Z,47.40
2019-03-06T08:02:04.584Z,47.50
2019-03-06T08:04:36.997Z,47.40
2019-03-06T08:07:14.058Z,47.30
2019-03-06T08:09:46.560Z,47.10
2019-03-06T08:12:39.999Z,46.90
2019-03-06T08:15:33.184Z,46.80
2019-03-06T08:18:17.865Z,46.80
2019-03-06T08:21:07.869Z,46.50
2019-03-06T08:24:02.049Z,46.20
2019-03-06T08:26:34.883Z,46.10
2019-03-06T08:29:07.282Z,45.80
2019-03-06T08:31:45.704Z,45.90
2019-03-06T08:34:18.114Z,45.40
2019-03-06T08:36:50.697Z,45.50
2019-03-06T08:39:24.237Z,45.70
2019-03-06T08:41:57.473Z,45.20
2019-03-06T08:44:29.873Z,45.50
2019-03-06T08:47:12.135Z,45.40
2019-03-06T08:50:02.190Z,45.40
2019-03-06T08:52:53.197Z,44.80
2019-03-06T08:55:47.602Z,45.00
2019-03-06T08:58:28.908Z,44.80
2019-03-06T09:01:43.376Z,44.70
2019-03-06T09:04:33.439Z,44.60
2019-03-06T09:07:12.467Z,44.70
2019-03-06T09:10:06.637Z,44.70
2019-03-06T09:12:53.299Z,44.30
2019-03-06T09:15:56.921Z,44.40
2019-03-06T09:18:47.319Z,44.10
2019-03-06T09:21:35.660Z,44.40
2019-03-06T09:24:26.014Z,44.00
2019-03-06T09:27:17.331Z,43.70
2019-03-06T09:30:15.772Z,43.80
2019-03-06T09:32:51.794Z,43.40
2019-03-06T09:35:38.413Z,43.20
2019-03-06T09:38:28.676Z,42.90
2019-03-06T09:41:19.031Z,42.80
2019-03-06T09:44:07.729Z,42.80
2019-03-06T09:47:05.625Z,42.20
2019-03-06T09:49:55.515Z,41.90
2019-03-06T09:52:45.676Z,41.60
2019-03-06T09:55:55.199Z,41.00
2019-03-06T09:58:33.749Z,41.40
2019-03-06T10:01:31.424Z,40.90
2019-03-06T10:04:40.884Z,41.20
2019-03-06T10:07:30.714Z,41.20
2019-03-06T10:10:30.957Z,40.90
2019-03-06T10:13:20.047Z,40.10
2019-03-06T10:16:20.295Z,39.80
2019-03-06T10:18:57.253Z,39.60
2019-03-06T10:21:29.726Z,39.40
2019-03-06T10:24:02.114Z,39.20
2019-03-06T10:26:34.555Z,39.30
2019-03-06T10:29:06.942Z,39.30
2019-03-06T10:31:39.430Z,39.30
2019-03-06T10:34:11.846Z,38.80
2019-03-06T10:36:44.431Z,38.40
2019-03-06T10:39:17.315Z,38.40
2019-03-06T10:41:49.705Z,38.20
2019-03-06T10:44:28.774Z,38.00
2019-03-06T10:46:56.178Z,37.70
2019-03-06T10:49:30.123Z,37.20
2019-03-06T10:52:02.576Z,37.00
2019-03-06T10:54:37.882Z,36.80
2019-03-06T10:57:09.022Z,36.80
2019-03-06T10:59:41.587Z,36.60
2019-03-06T11:02:13.991Z,36.50
2019-03-06T11:05:05.299Z,36.70
2019-03-06T11:07:37.766Z,36.70
2019-03-06T11:10:10.841Z,36.50
2019-03-06T11:12:43.244Z,36.00
2019-03-06T11:15:17.499Z,35.90
2019-03-06T11:17:50.169Z,35.80
2019-03-06T11:20:26.979Z,35.70
2019-03-06T11:23:00.379Z,35.60
2019-03-06T11:25:33.486Z,35.60
2019-03-06T11:28:06.864Z,35.90
2019-03-06T11:30:47.008Z,35.60
2019-03-06T11:33:19.859Z,35.70
2019-03-06T11:35:52.912Z,35.60
2019-03-06T11:38:25.374Z,35.60
2019-03-06T11:40:57.778Z,35.80
2019-03-06T11:43:30.238Z,35.70
2019-03-06T11:46:02.714Z,36.00
2019-03-06T11:48:35.292Z,36.10
2019-03-06T11:51:07.750Z,36.20
2019-03-06T11:53:40.161Z,36.20
2019-03-06T11:56:12.585Z,36.10
2019-03-06T11:58:45.169Z,35.90
2019-03-06T12:01:20.633Z,36.30
2019-03-06T12:03:53.153Z,36.30
2019-03-06T12:06:25.541Z,36.50
2019-03-06T12:08:58.017Z,36.30
2019-03-06T12:11:31.465Z,36.10
2019-03-06T12:14:03.865Z,36.00
2019-03-06T12:16:41.766Z,36.20
2019-03-06T12:19:10.351Z,35.90
2019-03-06T12:21:43.317Z,36.20
2019-03-06T12:24:15.977Z,36.00
2019-03-06T12:26:48.361Z,36.20
2019-03-06T12:29:21.834Z,36.50
2019-03-06T12:31:54.213Z,36.40
2019-03-06T12:34:26.616Z,36.40
2019-03-06T12:36:58.976Z,36.80
2019-03-06T12:39:32.735Z,36.50
2019-03-06T12:42:13.737Z,36.50
2019-03-06T12:44:39.243Z,36.50
2019-03-06T12:47:11.626Z,36.20
2019-03-06T12:49:44.027Z,36.50
2019-03-06T12:52:16.409Z,36.70
2019-03-06T12:54:48.800Z,36.90
2019-03-06T12:57:21.195Z,37.00
2019-03-06T12:59:54.670Z,37.20
2019-03-06T13:02:27.095Z,36.60
2019-03-06T13:04:59.503Z,36.60
2019-03-06T13:07:32.148Z,36.50
2019-03-06T13:10:05.045Z,36.80
2019-03-06T13:12:38.308Z,36.70
2019-03-06T13:15:14.289Z,36.60
2019-03-06T13:17:46.670Z,36.70
2019-03-06T13:20:19.080Z,36.50
2019-03-06T13:22:52.169Z,36.00
2019-03-06T13:25:42.598Z,36.30
2019-03-06T13:28:33.857Z,36.70
2019-03-06T13:31:24.188Z,36.50
2019-03-06T13:34:10.854Z,36.50
2019-03-06T13:36:43.408Z,36.80
2019-03-06T13:39:17.201Z,36.70
2019-03-06T13:41:49.733Z,37.20
2019-03-06T13:44:22.102Z,36.00
2019-03-06T13:46:54.435Z,36.10
2019-03-06T13:49:26.812Z,36.00
2019-03-06T13:51:59.223Z,36.00
2019-03-06T13:54:31.754Z,36.00
2019-03-06T13:57:05.211Z,36.20
2019-03-06T13:59:37.576Z,36.10
2019-03-06T14:02:09.993Z,36.20
2019-03-06T14:04:42.369Z,36.20
2019-03-06T14:07:14.841Z,36.20
2019-03-06T14:09:48.295Z,36.30
2019-03-06T14:12:20.628Z,36.10
2019-03-06T14:14:53.004Z,36.10
2019-03-06T14:17:25.406Z,36.10
2019-03-06T14:19:57.799Z,36.20
2019-03-06T14:22:30.222Z,36.20
2019-03-06T14:25:02.666Z,37.10
2019-03-06T14:27:36.158Z,36.50
2019-03-06T14:30:10.500Z,36.00
2019-03-06T14:32:42.834Z,36.20
2019-03-06T14:35:15.252Z,36.70
2019-03-06T14:37:47.721Z,35.90
2019-03-06T14:40:28.229Z,36.30
2019-03-06T14:43:00.742Z,35.30
2019-03-06T14:45:33.180Z,35.60
2019-03-06T14:48:05.655Z,35.60
2019-03-06T14:50:37.959Z,35.80
2019-03-06T14:53:10.300Z,35.60
2019-03-06T14:55:44.248Z,35.40
2019-03-06T14:58:16.654Z,35.80
2019-03-06T15:00:49.202Z,35.60
2019-03-06T15:03:25.806Z,35.60
2019-03-06T15:05:58.198Z,35.60
2019-03-06T15:08:30.671Z,35.70
2019-03-06T15:11:03.114Z,35.90
2019-03-06T15:13:35.479Z,35.90
2019-03-06T15:16:09.446Z,35.50
2019-03-06T15:18:41.834Z,35.70
2019-03-06T15:21:14.267Z,35.90
2019-03-06T15:23:46.701Z,35.90
2019-03-06T15:26:20.279Z,36.00
2019-03-06T15:28:52.684Z,36.00
2019-03-06T15:31:25.066Z,36.10
2019-03-06T15:33:57.472Z,36.20
2019-03-06T15:36:29.866Z,36.30
2019-03-06T15:39:03.747Z,37.00
2019-03-06T15:41:37.785Z,36.50
2019-03-06T15:44:10.189Z,36.50
2019-03-06T15:46:42.498Z,36.20
2019-03-06T15:49:14.908Z,36.40
2019-03-06T15:51:47.300Z,36.50
2019-03-06T15:54:19.705Z,36.70
2019-03-06T15:56:52.200Z,36.60
2019-03-06T15:59:24.922Z,36.70
2019-03-06T16:01:57.303Z,36.60
2019-03-06T16:04:29.727Z,36.50
2019-03-06T16:07:02.131Z,36.40
2019-03-06T16:09:35.219Z,36.40
2019-03-06T16:12:07.590Z,36.50
2019-03-06T16:14:39.990Z,36.50
2019-03-06T16:17:12.381Z,36.60
2019-03-06T16:19:44.816Z,36.80
2019-03-06T16:22:17.483Z,36.60
2019-03-06T16:24:49.877Z,36.20
2019-03-06T16:27:22.252Z,36.40
2019-03-06T16:29:54.655Z,36.10
2019-03-06T16:32:28.036Z,36.20
2019-03-06T16:35:00.461Z,36.10
2019-03-06T16:37:32.868Z,36.20
2019-03-06T16:40:09.070Z,36.10
2019-03-06T16:42:41.473Z,36.30
2019-03-06T16:45:13.877Z,36.40
2019-03-06T16:47:46.728Z,36.30
2019-03-06T16:50:19.141Z,36.40
2019-03-06T16:52:51.519Z,36.30
2019-03-06T16:55:24.324Z,36.30
2019-03-06T16:57:57.995Z,36.00
2019-03-06T17:00:33.671Z,36.20
2019-03-06T17:03:06.012Z,36.20
2019-03-06T17:05:38.483Z,36.20
2019-03-06T17:08:11.368Z,36.20
2019-03-06T17:10:43.878Z,36.20
2019-03-06T17:13:16.280Z,36.20
2019-03-06T17:15:48.898Z,36.30
2019-03-06T17:18:21.494Z,35.80
2019-03-06T17:20:54.647Z,35.80
2019-03-06T17:23:27.134Z,35.60
2019-03-06T17:25:59.526Z,35.80
2019-03-06T17:28:31.940Z,35.90
2019-03-06T17:31:04.512Z,36.10
2019-03-06T17:33:36.887Z,36.80
2019-03-06T17:36:09.290Z,36.20
2019-03-06T17:38:41.747Z,36.20
2019-03-06T17:41:17.437Z,36.10
2019-03-06T17:43:49.936Z,36.40
2019-03-06T17:46:22.371Z,36.40
2019-03-06T17:48:54.750Z,36.30
2019-03-06T17:51:27.431Z,36.30
2019-03-06T17:53:59.732Z,36.20
2019-03-06T17:56:32.161Z,36.40
2019-03-06T17:59:04.540Z,36.50
2019-03-06T18:01:37.014Z,36.80
2019-03-06T18:04:15.593Z,36.70
2019-03-06T18:06:49.070Z,36.60
2019-03-06T18:09:21.452Z,36.70
2019-03-06T18:11:53.855Z,37.10
2019-03-06T18:14:26.312Z,37.10
2019-03-06T18:16:58.714Z,37.20
2019-03-06T18:19:31.103Z,37.10
2019-03-06T18:22:03.511Z,37.10
2019-03-06T18:24:35.901Z,37.30
2019-03-06T18:27:08.382Z,37.30
2019-03-06T18:29:42.336Z,37.10
2019-03-06T18:32:17.590Z,37.00
2019-03-06T18:34:49.952Z,37.00
2019-03-06T18:37:22.641Z,37.00
2019-03-06T18:39:55.007Z,37.00
2019-03-06T18:42:27.421Z,37.00
2019-03-06T18:45:03.843Z,37.10
2019-03-06T18:47:36.333Z,38.00
2019-03-06T18:50:11.343Z,37.50
2019-03-06T18:52:43.881Z,37.30
2019-03-06T18:55:16.569Z,37.30
2019-03-06T18:57:49.175Z,37.50
2019-03-06T19:00:22.916Z,37.60
2019-03-06T19:02:55.478Z,37.80
2019-03-06T19:05:27.951Z,38.00
2019-03-06T19:08:00.382Z,38.10
2019-03-06T19:10:32.737Z,38.20
2019-03-06T19:13:05.235Z,38.40
2019-03-06T19:15:37.614Z,38.30
2019-03-06T19:18:10.064Z,38.30
2019-03-06T19:20:42.464Z,38.40
2019-03-06T19:23:15.134Z,38.50
2019-03-06T19:25:47.594Z,38.70
2019-03-06T19:28:20.007Z,38.70
2019-03-06T19:30:52.387Z,38.80
2019-03-06T19:33:24.714Z,38.80
2019-03-06T19:35:57.275Z,39.00
2019-03-06T19:38:29.710Z,39.00
2019-03-06T19:41:02.096Z,38.90
2019-03-06T19:43:34.491Z,38.80
2019-03-06T19:46:06.865Z,38.90
2019-03-06T19:48:39.289Z,38.60
2019-03-06T19:51:11.665Z,38.50
2019-03-06T19:53:44.085Z,38.50
2019-03-06T19:56:18.486Z,39.00
2019-03-06T19:58:52.207Z,38.40
2019-03-06T20:01:24.570Z,38.60
2019-03-06T20:03:56.962Z,38.90
2019-03-06T20:06:29.352Z,39.10
2019-03-06T20:09:01.745Z,39.20
2019-03-06T20:11:35.885Z,39.30
2019-03-06T20:14:08.278Z,38.70
2019-03-06T20:16:40.578Z,38.80
2019-03-06T20:19:13.081Z,38.80
2019-03-06T20:21:45.454Z,38.80
2019-03-06T20:24:18.930Z,38.70
2019-03-06T20:26:51.310Z,38.80
2019-03-06T20:29:23.718Z,39.00
2019-03-06T20:31:56.092Z,39.00
2019-03-06T20:34:28.494Z,38.90
2019-03-06T20:37:00.862Z,38.90
2019-03-06T20:39:33.189Z,38.50
2019-03-06T20:42:05.567Z,38.60
2019-03-06T20:44:38.039Z,37.60
2019-03-06T20:47:10.527Z,37.70
2019-03-06T20:49:43.298Z,37.70
2019-03-06T20:52:16.677Z,37.70
2019-03-06T20:54:49.082Z,37.60
2019-03-06T20:57:21.487Z,37.50
2019-03-06T20:59:54.173Z,37.40
2019-03-06T21:02:27.617Z,37.50
2019-03-06T21:05:00.414Z,37.60
2019-03-06T21:07:35.592Z,37.60
2019-03-06T21:10:07.165Z,37.70
2019-03-06T21:12:39.553Z,37.60
2019-03-06T21:15:13.668Z,37.40
2019-03-06T21:17:46.059Z,37.20
2019-03-06T21:20:19.256Z,37.20
2019-03-06T21:22:51.633Z,37.20
2019-03-06T21:25:24.329Z,37.10
2019-03-06T21:27:56.899Z,37.10
2019-03-06T21:30:32.990Z,37.10
2019-03-06T21:33:05.406Z,37.00
2019-03-06T21:35:37.806Z,37.10
2019-03-06T21:38:10.180Z,37.10
2019-03-06T21:40:42.606Z,37.10
2019-03-06T21:43:14.969Z,36.60
2019-03-06T21:45:47.373Z,36.80
2019-03-06T21:48:19.757Z,36.80
2019-03-06T21:50:52.152Z,36.80
2019-03-06T21:53:24.531Z,36.90
2019-03-06T21:55:56.960Z,36.60
2019-03-06T21:58:29.685Z,36.60
2019-03-06T22:01:02.242Z,36.70
2019-03-06T22:03:34.953Z,36.50
2019-03-06T22:06:08.435Z,36.50
2019-03-06T22:08:40.807Z,36.70
2019-03-06T22:11:13.207Z,36.60
2019-03-06T22:13:45.612Z,36.60
2019-03-06T22:16:18.026Z,36.60
2019-03-06T22:18:50.410Z,36.60
2019-03-06T22:21:22.804Z,36.40
2019-03-06T22:23:55.343Z,36.40
2019-03-06T22:26:27.998Z,36.40
2019-03-06T22:29:00.346Z,36.40
2019-03-06T22:31:32.969Z,36.30
2019-03-06T22:34:06.414Z,36.10
2019-03-06T22:36:38.822Z,36.40
2019-03-06T22:39:11.472Z,36.50
2019-03-06T22:41:43.875Z,36.60
2019-03-06T22:44:16.248Z,36.50
2019-03-06T22:46:48.657Z,36.50
2019-03-06T22:49:21.031Z,36.60
2019-03-06T22:51:53.433Z,36.90
2019-03-06T22:54:25.803Z,36.80
2019-03-06T22:56:59.301Z,36.80
2019-03-06T22:59:31.681Z,36.80
2019-03-06T23:02:04.170Z,36.60
2019-03-06T23:04:36.609Z,36.70
2019-03-06T23:07:09.007Z,36.50
2019-03-06T23:09:41.377Z,36.50
2019-03-06T23:12:13.890Z,36.30
2019-03-06T23:14:46.277Z,36.60
2019-03-06T23:17:18.712Z,36.60
2019-03-06T23:19:52.623Z,36.70
2019-03-06T23:22:25.269Z,36.80
2019-03-06T23:24:57.665Z,36.70
2019-03-06T23:27:30.074Z,36.30
2019-03-06T23:30:02.454Z,36.20
2019-03-06T23:32:36.448Z,36.10
2019-03-06T23:35:09.313Z,36.20
2019-03-06T23:37:42.792Z,36.50
2019-03-06T23:40:15.188Z,37.40
2019-03-06T23:42:48.201Z,36.90
2019-03-06T23:45:21.745Z,36.90
2019-03-06T23:47:54.177Z,36.90
2019-03-06T23:50:26.553Z,36.50
2019-03-06T23:53:06.794Z,36.30
2019-03-06T23:55:39.279Z,36.40
2019-03-06T23:58:11.697Z,36.40
